Time;durP1;ratioP1;P1;durP2;ratioP2;P2;SDS_P1;SDS_P2;PMS_P1;PMS_P2;Temp;Humidity;BMP_temperature;BMP_pressure;BME280_temperature;BME280_humidity;BME280_pressure;Samples;Min_cycle;Max_cycle;Signal;HPM_P1;HPM_P2
2023/03/09 05:00:54;;;;;;;0.60;0.60;;;0.90;99.90;;;;;;5645461;23;20332;-68
2023/03/09 05:03:21;;;;;;;1.48;1.42;;;0.90;99.90;;;;;;4922543;29;20209;-68
2023/03/09 05:05:48;;;;;;;0.50;0.38;;;0.90;99.90;;;;;;4924110;29;20206;-66
2023/03/09 05:08:14;;;;;;;0.93;0.93;;;0.90;99.90;;;;;;4932642;29;20209;-66
2023/03/09 05:10:41;;;;;;;1.95;1.85;;;0.90;99.90;;;;;;4921971;29;20246;-67
2023/03/09 05:13:08;;;;;;;2.05;1.40;;;0.90;99.90;;;;;;4928044;29;20561;-68
2023/03/09 05:15:34;;;;;;;2.60;1.58;;;0.90;99.90;;;;;;4929862;29;20616;-67
2023/03/09 05:18:02;;;;;;;1.48;1.38;;;0.90;99.90;;;;;;4936894;29;20209;-67
2023/03/09 05:20:29;;;;;;;1.02;0.90;;;0.90;99.90;;;;;;4927981;28;20237;-67
2023/03/09 05:22:56;;;;;;;1.25;0.60;;;0.90;99.90;;;;;;4932119;29;20628;-66
2023/03/09 05:25:23;;;;;;;1.55;1.55;;;0.90;99.90;;;;;;4929235;29;20224;-66
2023/03/09 05:27:50;;;;;;;1.33;1.23;;;0.90;99.90;;;;;;4926065;29;20233;-67
2023/03/09 05:30:18;;;;;;;2.72;2.67;;;0.90;99.90;;;;;;4930624;29;20580;-67
2023/03/09 05:32:45;;;;;;;4.07;1.13;;;0.90;99.90;;;;;;4935075;29;20301;-66
2023/03/09 05:35:13;;;;;;;6.82;1.67;;;0.90;99.90;;;;;;4926496;29;20209;-67
2023/03/09 05:37:40;;;;;;;2.17;2.08;;;0.90;99.90;;;;;;4932823;29;20214;-65
2023/03/09 05:40:09;;;;;;;0.77;0.70;;;0.90;99.90;;;;;;4924372;29;20260;-66
2023/03/09 05:42:35;;;;;;;1.13;1.13;;;0.90;99.90;;;;;;4929372;29;20261;-66
2023/03/09 05:45:04;;;;;;;4.60;2.50;;;0.90;99.90;;;;;;4924830;29;20206;-67
2023/03/09 05:47:31;;;;;;;3.13;1.63;;;0.80;99.90;;;;;;4924342;29;20205;-67
2023/03/09 05:49:57;;;;;;;1.30;1.30;;;0.80;99.90;;;;;;4931891;29;20206;-66
2023/03/09 05:52:25;;;;;;;1.40;1.40;;;0.90;99.90;;;;;;4921410;29;20247;-66
2023/03/09 05:54:52;;;;;;;1.58;1.58;;;0.80;99.90;;;;;;4931583;29;20662;-67
2023/03/09 05:57:19;;;;;;;4.32;1.15;;;0.90;99.90;;;;;;4936035;29;20856;-66
2023/03/09 05:59:48;;;;;;;1.10;1.10;;;0.90;99.90;;;;;;4925615;29;20234;-67
2023/03/09 06:02:15;;;;;;;1.17;1.08;;;0.90;99.90;;;;;;4923611;29;20598;-67
2023/03/09 06:04:42;;;;;;;7.32;3.50;;;0.90;99.90;;;;;;4919135;29;20297;-66
2023/03/09 06:07:08;;;;;;;1.75;1.65;;;0.90;99.90;;;;;;4930326;29;20281;-66
2023/03/09 06:09:36;;;;;;;1.50;1.50;;;0.80;99.90;;;;;;4920217;29;20530;-67
2023/03/09 06:12:04;;;;;;;2.00;2.00;;;0.90;99.90;;;;;;4920538;29;20711;-68
2023/03/09 06:14:30;;;;;;;2.70;2.60;;;0.80;99.90;;;;;;4924215;29;20292;-67
2023/03/09 06:16:57;;;;;;;1.17;1.08;;;0.90;99.90;;;;;;4929359;29;20209;-67
2023/03/09 06:19:24;;;;;;;1.65;1.15;;;0.90;99.90;;;;;;4925824;29;20252;-68
2023/03/09 06:21:51;;;;;;;6.75;1.63;;;0.90;99.90;;;;;;4923826;29;20594;-67
2023/03/09 06:24:18;;;;;;;4.30;1.85;;;0.90;99.90;;;;;;4925863;28;20879;-68
2023/03/09 06:26:45;;;;;;;2.28;2.17;;;0.90;99.90;;;;;;4928606;29;20671;-66
2023/03/09 06:29:12;;;;;;;1.27;1.27;;;0.90;99.90;;;;;;4920622;29;20225;-66
2023/03/09 06:31:39;;;;;;;2.42;2.30;;;0.90;99.90;;;;;;4919738;29;20226;-67
2023/03/09 06:34:06;;;;;;;2.33;2.13;;;0.90;99.90;;;;;;4920331;29;20210;-68
2023/03/09 06:36:34;;;;;;;5.72;1.95;;;1.00;99.90;;;;;;4928715;29;20202;-69
2023/03/09 06:39:01;;;;;;;3.47;1.98;;;1.00;99.90;;;;;;4922199;29;20288;-68
2023/03/09 06:41:31;;;;;;;2.28;2.05;;;1.00;99.90;;;;;;4926055;29;20226;-68
2023/03/09 06:44:00;;;;;;;3.80;1.00;;;1.00;99.90;;;;;;4913608;29;20210;-68
2023/03/09 06:46:28;;;;;;;1.45;1.20;;;1.10;99.90;;;;;;4928029;29;20206;-69
2023/03/09 06:48:55;;;;;;;1.50;1.40;;;1.10;99.90;;;;;;4917676;29;20217;-69
2023/03/09 06:51:22;;;;;;;2.83;2.28;;;1.10;99.90;;;;;;4933236;29;20233;-69
2023/03/09 06:53:49;;;;;;;1.30;1.30;;;1.10;99.90;;;;;;4919247;29;20211;-69
2023/03/09 06:56:16;;;;;;;1.23;1.23;;;1.20;99.90;;;;;;4930019;29;20232;-69
2023/03/09 06:58:42;;;;;;;5.05;4.50;;;1.20;99.90;;;;;;4935908;29;20202;-69
2023/03/09 07:01:14;;;;;;;1.77;1.67;;;1.10;99.90;;;;;;4932650;29;20601;-70
2023/03/09 07:03:41;;;;;;;2.28;2.17;;;1.20;99.90;;;;;;4931184;29;20198;-69
2023/03/09 07:06:09;;;;;;;0.88;0.88;;;1.20;99.90;;;;;;4927038;29;20298;-69
2023/03/09 07:08:35;;;;;;;8.63;2.25;;;1.30;99.90;;;;;;4923777;29;20213;-68
2023/03/09 07:11:03;;;;;;;3.35;3.08;;;1.30;99.90;;;;;;4929285;29;20241;-68
2023/03/09 07:13:32;;;;;;;0.60;0.60;;;1.30;99.90;;;;;;4923988;29;20256;-68
2023/03/09 07:15:58;;;;;;;1.40;1.30;;;1.30;99.90;;;;;;4935963;29;20324;-68
2023/03/09 07:18:26;;;;;;;1.83;1.73;;;1.40;99.90;;;;;;4926595;29;20713;-68
2023/03/09 07:20:53;;;;;;;1.35;1.30;;;1.40;99.90;;;;;;4935582;29;20230;-68
2023/03/09 07:23:20;;;;;;;1.88;1.20;;;1.40;99.90;;;;;;4932033;29;20648;-68
2023/03/09 07:25:47;;;;;;;6.63;1.90;;;1.40;99.90;;;;;;4928323;29;20310;-68
2023/03/09 07:28:13;;;;;;;1.88;1.40;;;1.40;99.90;;;;;;4931929;29;20210;-68
2023/03/09 07:30:40;;;;;;;1.73;1.67;;;1.40;99.90;;;;;;4926983;29;20575;-68
2023/03/09 07:33:07;;;;;;;2.65;2.55;;;1.30;99.90;;;;;;4919469;29;20199;-68
2023/03/09 07:35:39;;;;;;;4.43;2.22;;;1.30;99.90;;;;;;4928576;29;20209;-69
2023/03/09 07:38:05;;;;;;;1.55;1.55;;;1.40;99.90;;;;;;4928661;29;20217;-67
2023/03/09 07:40:32;;;;;;;3.00;2.80;;;1.40;99.90;;;;;;4918697;29;20253;-67
2023/03/09 07:42:59;;;;;;;0.47;0.47;;;1.40;99.90;;;;;;4926935;29;20357;-67
2023/03/09 07:45:26;;;;;;;7.13;2.95;;;1.50;99.90;;;;;;4927949;29;20210;-69
2023/03/09 07:47:52;;;;;;;2.60;2.50;;;1.60;99.90;;;;;;4929189;29;20245;-68
2023/03/09 07:50:19;;;;;;;6.95;3.33;;;1.60;99.90;;;;;;4930752;29;20213;-68
2023/03/09 07:52:48;;;;;;;2.75;2.38;;;1.60;99.90;;;;;;4929008;29;20591;-69
2023/03/09 07:55:15;;;;;;;2.35;2.25;;;1.60;99.90;;;;;;4933557;29;20309;-68
2023/03/09 07:57:43;;;;;;;4.25;3.85;;;1.70;99.90;;;;;;4918412;29;20596;-67
2023/03/09 08:00:20;;;;;;;16.40;4.78;;;1.70;99.90;;;;;;4918253;29;20230;-68
2023/03/09 08:02:47;;;;;;;1.98;1.88;;;1.70;99.90;;;;;;4930359;29;20209;-69
2023/03/09 08:05:15;;;;;;;8.40;3.72;;;1.90;99.90;;;;;;4929710;29;20214;-69
2023/03/09 08:07:42;;;;;;;2.88;2.67;;;2.00;99.90;;;;;;4932362;29;20678;-69
2023/03/09 08:10:13;;;;;;;4.03;3.67;;;2.00;99.90;;;;;;4925627;29;20202;-71
2023/03/09 08:12:39;;;;;;;4.45;4.15;;;2.00;99.90;;;;;;4928891;29;20206;-68
2023/03/09 08:15:07;;;;;;;1.20;1.20;;;2.00;99.90;;;;;;4926914;29;20224;-69
2023/03/09 08:17:34;;;;;;;3.25;2.45;;;2.10;99.90;;;;;;4928836;29;20218;-69
2023/03/09 08:20:01;;;;;;;2.28;1.90;;;2.20;99.90;;;;;;4927646;29;20237;-70
2023/03/09 08:22:27;;;;;;;5.60;3.30;;;2.30;99.90;;;;;;4920168;29;20226;-69
2023/03/09 08:24:54;;;;;;;3.08;2.88;;;2.40;99.90;;;;;;4929681;29;20209;-69
2023/03/09 08:27:22;;;;;;;2.45;2.33;;;2.40;99.90;;;;;;4928245;29;20663;-69
2023/03/09 08:29:50;;;;;;;2.97;2.63;;;2.40;99.90;;;;;;4926869;29;20233;-70
2023/03/09 08:32:16;;;;;;;5.38;3.75;;;2.40;99.90;;;;;;4931507;29;20237;-70
2023/03/09 08:34:43;;;;;;;3.10;2.22;;;2.40;99.90;;;;;;4930217;29;20216;-69
2023/03/09 08:37:10;;;;;;;4.15;3.13;;;2.50;99.90;;;;;;4933010;29;20678;-69
2023/03/09 08:39:36;;;;;;;2.95;2.55;;;2.50;99.90;;;;;;4931153;29;20210;-69
2023/03/09 08:42:04;;;;;;;4.68;4.32;;;2.60;99.90;;;;;;4929533;29;20244;-70
2023/03/09 08:44:32;;;;;;;8.00;3.47;;;2.60;99.90;;;;;;4928198;29;20206;-68
2023/03/09 08:46:59;;;;;;;3.45;1.58;;;2.70;99.90;;;;;;4924580;29;20215;-68
2023/03/09 08:49:26;;;;;;;5.65;3.85;;;2.80;99.90;;;;;;4920483;29;20215;-68
2023/03/09 08:51:53;;;;;;;4.80;2.92;;;2.80;99.90;;;;;;4926771;29;20249;-68
2023/03/09 08:54:19;;;;;;;2.83;2.63;;;2.90;99.90;;;;;;4920849;29;20217;-68
2023/03/09 08:56:46;;;;;;;2.03;2.03;;;3.00;99.90;;;;;;4925151;29;20313;-68
2023/03/09 08:59:13;;;;;;;3.92;3.22;;;3.10;99.90;;;;;;4928798;29;20224;-67
2023/03/09 09:01:41;;;;;;;1.27;1.27;;;3.10;99.90;;;;;;4933439;29;20234;-67
2023/03/09 09:04:08;;;;;;;5.28;4.25;;;3.10;99.90;;;;;;4933198;29;20230;-67
2023/03/09 09:06:35;;;;;;;4.97;3.60;;;3.10;99.90;;;;;;4933437;28;20293;-67
2023/03/09 09:09:01;;;;;;;1.85;1.83;;;3.00;99.90;;;;;;4925963;29;20282;-68
2023/03/09 09:11:28;;;;;;;2.15;1.27;;;3.00;99.90;;;;;;4934216;29;20222;-68
2023/03/09 09:13:55;;;;;;;1.42;1.42;;;3.00;99.90;;;;;;4933527;29;20202;-67
2023/03/09 09:16:21;;;;;;;5.28;4.93;;;3.10;99.90;;;;;;4934862;29;20214;-69
2023/03/09 09:18:49;;;;;;;3.00;2.83;;;3.20;99.90;;;;;;4921671;29;20216;-70
2023/03/09 09:21:17;;;;;;;4.60;2.00;;;3.30;99.90;;;;;;4927711;29;20238;-68
2023/03/09 09:23:45;;;;;;;2.83;2.25;;;3.30;99.90;;;;;;4931567;29;20248;-67
2023/03/09 09:26:14;;;;;;;1.92;1.65;;;3.40;99.90;;;;;;4927745;29;20206;-67
2023/03/09 09:28:41;;;;;;;1.00;1.00;;;3.50;99.90;;;;;;4923676;29;20213;-69
2023/03/09 09:31:12;;;;;;;2.60;1.77;;;3.50;99.90;;;;;;4926650;29;20241;-69
2023/03/09 09:33:39;;;;;;;1.70;1.60;;;3.50;99.90;;;;;;4932376;29;20210;-67
2023/03/09 09:36:10;;;;;;;2.78;2.40;;;3.50;99.90;;;;;;4930777;29;20206;-67
2023/03/09 09:38:39;;;;;;;1.73;1.73;;;3.60;99.90;;;;;;4923158;29;20210;-67
2023/03/09 09:41:13;;;;;;;9.10;1.20;;;3.70;99.90;;;;;;4921745;29;20231;-68
2023/03/09 09:43:42;;;;;;;5.57;1.85;;;3.60;99.90;;;;;;4925792;29;20216;-67
2023/03/09 09:46:13;;;;;;;7.20;2.92;;;3.60;99.90;;;;;;4929340;29;20214;-70
2023/03/09 09:48:41;;;;;;;1.33;1.23;;;3.60;99.90;;;;;;4926805;29;20214;-67
2023/03/09 09:51:22;;;;;;;2.05;1.95;;;3.70;99.90;;;;;;4932098;29;20226;-68
2023/03/09 09:53:59;;;;;;;3.22;3.13;;;3.80;99.90;;;;;;4924707;29;20209;-68
2023/03/09 09:56:35;;;;;;;1.58;1.48;;;3.80;99.90;;;;;;4929620;29;20213;-69
2023/03/09 09:59:05;;;;;;;4.63;2.35;;;3.80;99.90;;;;;;4922105;29;20206;-69
2023/03/09 10:01:43;;;;;;;3.63;1.45;;;3.70;99.90;;;;;;4928118;29;20240;-69
2023/03/09 10:04:16;;;;;;;3.90;2.67;;;3.70;99.90;;;;;;4924994;29;20296;-69
2023/03/09 10:06:47;;;;;;;1.67;1.55;;;3.70;99.90;;;;;;4927257;29;20447;-69
2023/03/09 10:09:20;;;;;;;1.58;1.48;;;3.70;99.90;;;;;;4929164;29;20209;-69
2023/03/09 10:11:52;;;;;;;1.98;1.98;;;3.80;99.90;;;;;;4939713;28;20300;-70
2023/03/09 10:14:26;;;;;;;3.83;3.05;;;3.80;99.90;;;;;;4927034;29;20698;-69
2023/03/09 10:16:59;;;;;;;5.30;2.50;;;3.80;99.90;;;;;;4919232;29;20206;-69
2023/03/09 10:19:31;;;;;;;3.22;2.95;;;3.80;99.90;;;;;;4926104;29;20519;-68
2023/03/09 10:22:01;;;;;;;5.55;2.30;;;3.90;99.90;;;;;;4933537;29;20234;-69
2023/03/09 10:24:32;;;;;;;3.03;2.92;;;3.90;99.90;;;;;;4923176;29;20224;-69
2023/03/09 10:27:02;;;;;;;3.05;2.55;;;3.90;99.90;;;;;;4929663;29;20202;-69
2023/03/09 10:29:42;;;;;;;6.78;5.07;;;3.90;99.90;;;;;;4925973;29;20222;-68
2023/03/09 10:32:16;;;;;;;1.85;1.25;;;3.90;99.90;;;;;;4929543;29;20230;-68
2023/03/09 10:34:54;;;;;;;1.58;1.58;;;3.90;99.90;;;;;;4926487;29;20706;-69
2023/03/09 10:37:24;;;;;;;1.98;1.77;;;3.90;99.90;;;;;;4931192;29;20273;-68
2023/03/09 10:39:51;;;;;;;11.23;4.00;;;3.90;99.90;;;;;;4940917;28;20224;-68
2023/03/09 10:42:21;;;;;;;2.25;1.88;;;4.00;99.90;;;;;;4925125;29;20230;-69
2023/03/09 10:45:01;;;;;;;6.15;2.05;;;4.00;99.90;;;;;;4931575;29;20232;-68
2023/03/09 10:48:05;;;;;;;1.35;1.33;;;4.10;99.90;;;;;;4921634;29;20214;-68
2023/03/09 10:50:35;;;;;;;3.15;2.97;;;4.10;99.90;;;;;;4872329;29;20315;-69
2023/03/09 10:53:27;;;;;;;0.82;0.80;;;4.10;99.90;;;;;;4914797;29;20216;-69
2023/03/09 10:55:55;;;;;;;2.60;2.45;;;4.20;99.90;;;;;;4930637;29;20313;-68
2023/03/09 10:58:23;;;;;;;7.25;3.70;;;4.20;99.90;;;;;;4931056;29;20250;-69
2023/03/09 11:00:59;;;;;;;1.70;1.70;;;4.20;99.90;;;;;;4920794;29;20235;-68
2023/03/09 11:03:31;;;;;;;4.93;3.40;;;4.20;99.90;;;;;;4919647;29;20652;-68
2023/03/09 11:06:11;;;;;;;1.17;1.17;;;4.10;99.90;;;;;;4935484;29;20237;-68
2023/03/09 11:08:41;;;;;;;3.90;2.70;;;4.10;99.90;;;;;;4923827;29;20206;-69
2023/03/09 11:11:17;;;;;;;3.05;2.85;;;4.20;99.90;;;;;;4929248;29;20620;-69
2023/03/09 11:13:45;;;;;;;2.55;2.45;;;4.20;99.90;;;;;;4921509;29;20221;-68
2023/03/09 11:16:16;;;;;;;2.75;2.65;;;4.30;99.90;;;;;;4931867;29;20695;-68
2023/03/09 11:18:43;;;;;;;3.25;2.38;;;4.30;99.90;;;;;;4930965;29;20722;-69
2023/03/09 11:21:20;;;;;;;2.80;1.90;;;4.30;99.90;;;;;;4927968;29;20242;-70
2023/03/09 11:23:52;;;;;;;0.85;0.82;;;4.30;99.90;;;;;;4923528;29;20202;-69
2023/03/09 11:26:25;;;;;;;1.90;1.90;;;4.40;99.90;;;;;;4945912;29;20492;-68
2023/03/09 11:28:58;;;;;;;1.95;1.63;;;4.50;99.90;;;;;;4931195;29;20228;-68
2023/03/09 11:31:29;;;;;;;1.38;1.27;;;4.60;99.90;;;;;;4931801;28;20707;-68
2023/03/09 11:33:58;;;;;;;1.35;1.20;;;4.60;99.90;;;;;;4918839;29;20233;-68
2023/03/09 11:36:29;;;;;;;1.85;1.38;;;4.50;99.90;;;;;;4947218;23;20242;-70
2023/03/09 11:39:01;;;;;;;1.60;1.60;;;4.50;99.90;;;;;;4931093;29;20213;-69
2023/03/09 11:41:32;;;;;;;4.80;2.15;;;4.50;99.90;;;;;;4940091;29;20214;-70
2023/03/09 11:44:04;;;;;;;1.65;1.60;;;4.40;99.90;;;;;;4928294;29;20214;-70
2023/03/09 11:46:32;;;;;;;2.97;2.88;;;4.50;99.90;;;;;;4936062;29;20268;-69
2023/03/09 11:49:07;;;;;;;2.13;2.03;;;4.50;99.90;;;;;;4932554;29;20206;-69
2023/03/09 11:51:39;;;;;;;1.85;1.02;;;4.50;99.90;;;;;;4933797;29;20229;-68
2023/03/09 11:54:20;;;;;;;0.80;0.80;;;4.50;99.90;;;;;;4945487;29;20221;-68
2023/03/09 11:56:48;;;;;;;1.75;1.60;;;4.50;99.90;;;;;;4928478;29;20237;-70
2023/03/09 11:59:19;;;;;;;3.67;2.17;;;4.50;99.90;;;;;;4932204;29;20225;-68
2023/03/09 12:01:50;;;;;;;1.00;1.00;;;4.50;99.90;;;;;;4939841;29;20605;-69
2023/03/09 12:04:18;;;;;;;0.98;0.95;;;4.40;99.90;;;;;;4937749;29;20213;-70
2023/03/09 12:06:51;;;;;;;1.63;1.52;;;4.40;99.90;;;;;;4940387;29;20611;-69
2023/03/09 12:09:36;;;;;;;1.23;0.70;;;4.30;99.90;;;;;;4936258;29;20214;-70
2023/03/09 12:12:22;;;;;;;7.10;3.55;;;4.30;99.90;;;;;;4938370;29;20202;-70
2023/03/09 12:14:53;;;;;;;3.08;1.90;;;4.40;99.90;;;;;;4928197;29;20206;-70
2023/03/09 12:17:22;;;;;;;2.55;2.45;;;4.40;99.90;;;;;;4926023;29;20210;-70
2023/03/09 12:19:52;;;;;;;2.15;2.08;;;4.40;99.90;;;;;;4929186;29;20210;-69
2023/03/09 12:22:26;;;;;;;4.45;2.35;;;4.50;99.90;;;;;;4939972;29;20244;-70
2023/03/09 12:25:00;;;;;;;2.05;1.50;;;4.50;99.90;;;;;;4936128;29;20230;-69
2023/03/09 12:27:29;;;;;;;1.75;1.65;;;4.50;99.90;;;;;;4953585;29;20220;-68
2023/03/09 12:30:09;;;;;;;4.65;3.10;;;4.50;99.90;;;;;;4938055;29;20202;-69
2023/03/09 12:32:43;;;;;;;3.17;2.30;;;4.60;99.90;;;;;;4937613;29;20752;-69
2023/03/09 12:35:40;;;;;;;1.65;1.52;;;4.60;99.90;;;;;;4927078;29;20331;-68
2023/03/09 12:38:26;;;;;;;1.17;1.17;;;4.60;99.90;;;;;;4921909;29;20210;-70
2023/03/09 12:40:54;;;;;;;1.52;1.52;;;4.50;99.90;;;;;;4924266;29;20213;-69
2023/03/09 12:43:47;;;;;;;0.63;0.50;;;4.50;99.90;;;;;;4936267;29;20218;-70
2023/03/09 12:46:56;;;;;;;0.60;0.60;;;4.50;99.90;;;;;;4935540;28;20262;-70
2023/03/09 12:49:28;;;;;;;0.95;0.95;;;4.50;99.90;;;;;;4931960;29;20300;-70
2023/03/09 12:52:23;;;;;;;2.25;2.15;;;4.60;99.90;;;;;;4928896;29;20294;-69
2023/03/09 12:54:59;;;;;;;2.10;2.03;;;4.60;99.90;;;;;;4919852;29;20210;-69
2023/03/09 12:57:27;;;;;;;2.55;2.45;;;4.60;99.90;;;;;;4931707;29;20228;-70
2023/03/09 12:59:54;;;;;;;2.83;2.60;;;4.50;99.90;;;;;;4925816;29;20216;-69
2023/03/09 13:02:27;;;;;;;2.22;2.03;;;4.50;99.90;;;;;;4933676;29;20472;-69
2023/03/09 13:05:24;;;;;;;0.70;0.70;;;4.50;99.90;;;;;;4933792;29;20210;-70
2023/03/09 13:07:58;;;;;;;2.45;1.92;;;4.50;99.90;;;;;;4932674;29;20280;-69
2023/03/09 13:10:29;;;;;;;1.40;1.10;;;4.50;99.90;;;;;;4932664;29;20558;-69
2023/03/09 13:13:37;;;;;;;0.90;0.90;;;4.50;99.90;;;;;;4915930;29;20584;-69
2023/03/09 13:16:41;;;;;;;1.13;0.88;;;4.50;99.90;;;;;;4923965;29;20595;-69
2023/03/09 13:19:42;;;;;;;1.45;1.45;;;4.50;99.90;;;;;;4919516;29;20213;-69
2023/03/09 13:22:35;;;;;;;1.42;1.33;;;4.50;99.90;;;;;;4926483;29;20353;-69
2023/03/09 13:25:40;;;;;;;1.90;1.80;;;4.50;99.90;;;;;;4932833;29;20222;-69
2023/03/09 13:28:24;;;;;;;2.58;2.22;;;4.50;99.90;;;;;;4922705;29;20209;-69
2023/03/09 13:30:54;;;;;;;1.40;1.40;;;4.40;99.90;;;;;;4915380;29;20206;-69
2023/03/09 13:33:26;;;;;;;1.95;1.88;;;4.50;99.90;;;;;;4921314;29;20213;-69
2023/03/09 13:35:58;;;;;;;2.15;1.98;;;4.50;99.90;;;;;;4933824;29;20234;-70
2023/03/09 13:38:29;;;;;;;2.15;1.55;;;4.50;99.90;;;;;;4915539;29;20248;-69
2023/03/09 13:40:58;;;;;;;2.28;1.90;;;4.50;99.90;;;;;;4915203;29;20217;-69
2023/03/09 13:43:30;;;;;;;1.20;1.13;;;4.40;99.90;;;;;;4921133;29;20304;-69
2023/03/09 13:46:02;;;;;;;1.58;1.58;;;4.30;99.90;;;;;;4919768;29;20221;-69
2023/03/09 13:48:30;;;;;;;1.52;1.33;;;4.30;99.90;;;;;;4919847;29;20226;-69
2023/03/09 13:50:57;;;;;;;2.25;2.15;;;4.20;99.90;;;;;;4927911;29;20295;-69
2023/03/09 13:53:26;;;;;;;1.33;1.33;;;4.30;99.90;;;;;;4930772;29;20206;-69
2023/03/09 13:55:59;;;;;;;1.42;1.33;;;4.30;99.90;;;;;;4938510;28;20714;-69
2023/03/09 13:58:28;;;;;;;2.95;2.75;;;4.20;99.90;;;;;;4924832;29;20213;-69
2023/03/09 14:00:56;;;;;;;2.50;2.13;;;4.10;99.90;;;;;;4928989;29;20281;-69
2023/03/09 14:03:25;;;;;;;3.42;1.70;;;4.20;99.90;;;;;;4925788;29;20624;-69
2023/03/09 14:05:57;;;;;;;2.20;1.20;;;4.20;99.90;;;;;;4916718;29;20242;-69
2023/03/09 14:08:25;;;;;;;1.95;1.25;;;4.20;99.90;;;;;;4922883;29;20217;-70
2023/03/09 14:10:52;;;;;;;2.80;2.70;;;4.20;99.90;;;;;;4914571;29;20210;-69
2023/03/09 14:13:22;;;;;;;1.92;1.75;;;4.20;99.90;;;;;;4928465;29;20212;-70
2023/03/09 14:16:01;;;;;;;1.88;1.83;;;4.10;99.90;;;;;;4923046;29;20236;-69
2023/03/09 14:18:35;;;;;;;1.73;1.70;;;4.10;99.90;;;;;;4921200;29;20213;-70
2023/03/09 14:21:02;;;;;;;1.38;1.38;;;4.10;99.90;;;;;;4927894;29;20581;-70
2023/03/09 14:23:39;;;;;;;3.97;3.60;;;4.10;99.90;;;;;;4920715;29;20238;-69
2023/03/09 14:26:07;;;;;;;1.65;1.65;;;4.10;99.90;;;;;;4923961;29;20258;-70
2023/03/09 14:28:36;;;;;;;2.97;2.88;;;4.10;99.90;;;;;;4937384;29;20206;-70
2023/03/09 14:31:17;;;;;;;2.92;1.92;;;4.10;99.90;;;;;;4931053;29;20225;-70
2023/03/09 14:33:57;;;;;;;1.77;1.25;;;4.10;99.90;;;;;;4923711;29;20415;-71
2023/03/09 14:36:25;;;;;;;2.03;1.60;;;4.10;99.90;;;;;;4920191;29;20237;-70
2023/03/09 14:38:54;;;;;;;4.40;2.80;;;4.00;99.90;;;;;;4931585;29;20210;-70
2023/03/09 14:41:23;;;;;;;2.53;2.13;;;4.00;99.90;;;;;;4925785;29;20212;-70
2023/03/09 14:43:50;;;;;;;4.97;2.72;;;4.00;99.90;;;;;;4926501;29;20214;-69
2023/03/09 14:46:20;;;;;;;2.88;2.17;;;4.00;99.90;;;;;;4924346;29;20253;-69
2023/03/09 14:48:47;;;;;;;2.28;1.40;;;4.00;99.90;;;;;;4914611;29;20207;-70
2023/03/09 14:51:19;;;;;;;2.63;2.42;;;4.10;99.90;;;;;;4923765;29;20225;-70
2023/03/09 14:53:57;;;;;;;4.78;4.35;;;4.10;99.90;;;;;;4928819;29;20235;-70
2023/03/09 14:56:25;;;;;;;4.38;4.05;;;4.00;99.90;;;;;;4915676;29;20245;-70
2023/03/09 14:58:52;;;;;;;3.20;2.95;;;4.00;99.90;;;;;;4915560;29;20223;-71
2023/03/09 15:01:21;;;;;;;5.72;3.53;;;4.00;99.90;;;;;;4915452;29;20221;-70
2023/03/09 15:03:49;;;;;;;4.80;4.40;;;4.00;99.90;;;;;;4913725;29;20211;-70
2023/03/09 15:06:16;;;;;;;6.45;3.22;;;3.90;99.90;;;;;;4925777;29;20230;-73
2023/03/09 15:08:43;;;;;;;6.88;2.65;;;3.90;99.90;;;;;;4928943;29;20305;-71
2023/03/09 15:11:10;;;;;;;4.13;3.83;;;3.80;99.90;;;;;;4932543;29;20213;-70
2023/03/09 15:13:37;;;;;;;7.53;4.40;;;3.80;99.90;;;;;;4929646;29;20206;-70
2023/03/09 15:16:05;;;;;;;3.35;3.15;;;3.80;99.90;;;;;;4937983;29;20226;-70
2023/03/09 15:18:33;;;;;;;3.17;2.03;;;3.80;99.90;;;;;;4933361;29;20207;-69
2023/03/09 15:21:00;;;;;;;1.52;1.52;;;3.80;99.90;;;;;;4926795;29;20202;-69
2023/03/09 15:23:26;;;;;;;19.60;5.32;;;3.70;99.90;;;;;;4917570;29;20238;-70
2023/03/09 15:25:54;;;;;;;3.22;2.83;;;3.60;99.90;;;;;;4930046;29;20232;-69
2023/03/09 15:28:20;;;;;;;4.53;3.03;;;3.60;99.90;;;;;;4928312;29;20212;-70
2023/03/09 15:30:47;;;;;;;3.83;3.80;;;3.50;99.90;;;;;;4918719;29;20215;-70
2023/03/09 15:33:14;;;;;;;2.78;2.45;;;3.50;99.90;;;;;;4932828;29;20202;-70
2023/03/09 15:35:42;;;;;;;3.47;3.20;;;3.40;99.90;;;;;;4917321;29;20234;-69
2023/03/09 15:38:09;;;;;;;4.15;2.08;;;3.40;99.90;;;;;;4916769;29;20632;-69
2023/03/09 15:40:36;;;;;;;3.42;3.17;;;3.40;99.90;;;;;;4926083;29;20237;-69
2023/03/09 15:43:03;;;;;;;5.20;3.58;;;3.40;99.90;;;;;;4934509;29;20222;-69
2023/03/09 15:45:30;;;;;;;17.67;4.50;;;3.40;99.90;;;;;;4927244;29;20226;-69
2023/03/09 15:47:56;;;;;;;4.53;3.67;;;3.40;99.90;;;;;;4928924;29;20233;-69
2023/03/09 15:50:24;;;;;;;3.50;3.13;;;3.40;99.90;;;;;;4916791;29;20206;-69
2023/03/09 15:52:52;;;;;;;0.75;0.75;;;3.40;99.90;;;;;;4916871;29;20210;-69
2023/03/09 15:55:18;;;;;;;0.57;0.57;;;3.40;99.90;;;;;;4924944;29;20710;-69
2023/03/09 15:57:45;;;;;;;1.38;1.38;;;3.30;99.90;;;;;;4928718;29;20214;-70
2023/03/09 16:00:13;;;;;;;3.63;3.42;;;3.30;99.90;;;;;;4935699;29;20217;-69
2023/03/09 16:02:40;;;;;;;1.75;1.65;;;3.20;99.90;;;;;;4935178;29;20234;-69
2023/03/09 16:05:09;;;;;;;2.30;1.27;;;3.20;99.90;;;;;;4935453;29;20233;-69
2023/03/09 16:07:36;;;;;;;2.40;2.20;;;3.20;99.90;;;;;;4927326;29;20249;-70
2023/03/09 16:10:06;;;;;;;3.45;3.08;;;3.10;99.90;;;;;;4942696;29;20690;-70
2023/03/09 16:12:33;;;;;;;3.05;2.15;;;3.10;99.90;;;;;;4939323;29;20213;-70
2023/03/09 16:15:00;;;;;;;9.75;3.70;;;3.10;99.90;;;;;;4940381;28;20320;-71
2023/03/09 16:17:27;;;;;;;5.57;4.03;;;3.10;99.90;;;;;;4925895;29;20219;-69
2023/03/09 16:19:53;;;;;;;3.45;3.15;;;3.10;99.90;;;;;;4918480;29;20392;-69
2023/03/09 16:22:20;;;;;;;3.65;2.85;;;3.10;99.90;;;;;;4928075;29;20227;-70
2023/03/09 16:24:47;;;;;;;3.20;3.10;;;3.10;99.90;;;;;;4935309;29;20777;-70
2023/03/09 16:27:15;;;;;;;8.32;2.53;;;3.10;99.90;;;;;;4926817;29;20269;-70
2023/03/09 16:29:42;;;;;;;2.90;2.80;;;3.10;99.90;;;;;;4916827;29;20215;-69
2023/03/09 16:32:08;;;;;;;1.30;1.30;;;3.10;99.90;;;;;;4917377;29;20549;-70
2023/03/09 16:34:36;;;;;;;1.98;1.90;;;3.10;99.90;;;;;;4920134;29;20210;-70
2023/03/09 16:37:04;;;;;;;1.47;1.37;;;3.10;99.90;;;;;;4886391;29;1041074;-70
2023/03/09 16:39:31;;;;;;;2.88;2.78;;;3.10;99.90;;;;;;4918701;29;20214;-68
2023/03/09 16:41:58;;;;;;;4.05;3.75;;;3.00;99.90;;;;;;4922461;29;20207;-69
2023/03/09 16:44:26;;;;;;;4.05;3.75;;;3.00;99.90;;;;;;4934256;29;20540;-70
2023/03/09 16:46:56;;;;;;;4.90;2.55;;;3.10;99.90;;;;;;4934857;29;20293;-69
2023/03/09 16:49:23;;;;;;;8.40;3.53;;;3.00;99.90;;;;;;4925877;29;20225;-69
2023/03/09 16:51:50;;;;;;;2.65;2.03;;;3.00;99.90;;;;;;4916691;29;20210;-68
2023/03/09 16:54:17;;;;;;;4.63;3.42;;;3.00;99.90;;;;;;4919349;29;20565;-68
2023/03/09 16:56:44;;;;;;;4.25;4.05;;;3.00;99.90;;;;;;4924103;29;20230;-68
2023/03/09 16:59:11;;;;;;;11.30;3.75;;;3.00;99.90;;;;;;4915884;29;20220;-69
2023/03/09 17:01:40;;;;;;;5.22;4.65;;;3.00;99.90;;;;;;4921012;29;20213;-69
2023/03/09 17:04:07;;;;;;;2.15;1.13;;;3.00;99.90;;;;;;4918987;29;20258;-69
2023/03/09 17:06:34;;;;;;;4.85;2.10;;;2.90;99.90;;;;;;4916564;29;20234;-69
2023/03/09 17:09:00;;;;;;;3.60;3.15;;;2.90;99.90;;;;;;4919210;29;20207;-69
2023/03/09 17:11:27;;;;;;;3.45;3.25;;;2.90;99.90;;;;;;4924778;29;20206;-69
2023/03/09 17:13:54;;;;;;;3.00;2.90;;;2.90;99.90;;;;;;4917740;29;20213;-69
2023/03/09 17:16:21;;;;;;;5.28;4.85;;;2.90;99.90;;;;;;4925830;29;20229;-69
2023/03/09 17:18:50;;;;;;;4.25;3.42;;;2.90;99.90;;;;;;4926110;29;20207;-69
2023/03/09 17:21:17;;;;;;;8.90;3.45;;;2.90;99.90;;;;;;4916038;29;20222;-68
2023/03/09 17:23:44;;;;;;;6.82;4.70;;;2.90;99.90;;;;;;4919065;29;20579;-68
2023/03/09 17:26:11;;;;;;;5.53;2.53;;;2.90;99.90;;;;;;4931363;29;20321;-68
2023/03/09 17:28:38;;;;;;;5.65;2.38;;;2.90;99.90;;;;;;4926498;29;20217;-68
2023/03/09 17:31:11;;;;;;;4.40;2.95;;;2.80;99.90;;;;;;4936782;29;20651;-68
2023/03/09 17:33:37;;;;;;;6.25;4.45;;;2.80;99.90;;;;;;4929802;29;20205;-68
2023/03/09 17:36:06;;;;;;;2.78;2.70;;;2.80;99.90;;;;;;4940067;28;20284;-67
2023/03/09 17:38:33;;;;;;;4.00;3.80;;;2.70;99.90;;;;;;4933723;29;20547;-68
2023/03/09 17:41:01;;;;;;;5.90;5.03;;;2.70;99.90;;;;;;4941362;28;20213;-69
2023/03/09 17:43:29;;;;;;;3.10;2.92;;;2.60;99.90;;;;;;4933981;29;20229;-69
2023/03/09 17:46:01;;;;;;;4.57;4.18;;;2.60;99.90;;;;;;4934522;29;20226;-68
2023/03/09 17:48:28;;;;;;;3.92;2.72;;;2.60;99.90;;;;;;4927745;29;20654;-69
2023/03/09 17:50:56;;;;;;;6.32;3.55;;;2.60;99.90;;;;;;4924525;29;20371;-70
2023/03/09 17:53:26;;;;;;;3.05;2.75;;;2.60;99.90;;;;;;4924522;29;20206;-70
2023/03/09 17:55:53;;;;;;;2.65;2.55;;;2.60;99.90;;;;;;4934702;29;20240;-69
2023/03/09 17:58:20;;;;;;;1.75;1.65;;;2.60;99.90;;;;;;4931708;29;20580;-69
2023/03/09 18:00:47;;;;;;;3.10;3.03;;;2.60;99.90;;;;;;4930284;29;20210;-69
2023/03/09 18:03:13;;;;;;;5.95;4.18;;;2.60;99.90;;;;;;4940229;29;20244;-69
2023/03/09 18:05:40;;;;;;;3.30;2.60;;;2.50;99.90;;;;;;4946109;28;20229;-69
2023/03/09 18:08:07;;;;;;;13.85;3.85;;;2.50;99.90;;;;;;4937548;28;20206;-68
2023/03/09 18:10:36;;;;;;;3.72;3.53;;;2.40;99.90;;;;;;4927832;29;20237;-68
2023/03/09 18:13:03;;;;;;;5.07;3.60;;;2.40;99.90;;;;;;4928945;29;20261;-68